Time;durP1;ratioP1;P1;durP2;ratioP2;P2;SDS_P1;SDS_P2;PMS_P1;PMS_P2;Temp;Humidity;BMP_temperature;BMP_pressure;BME280_temperature;BME280_humidity;BME280_pressure;Samples;Min_cycle;Max_cycle;Signal;HPM_P1;HPM_P2
2022/01/06 00:00:32;;;;;;;6.97;2.67;;;7.70;76.20;;;;;;4954845;28;20495;-73
2022/01/06 00:02:58;;;;;;;4.93;2.60;;;7.70;76.40;;;;;;4953040;28;20384;-74
2022/01/06 00:05:24;;;;;;;5.25;2.40;;;7.80;76.50;;;;;;4952488;28;20030;-74
2022/01/06 00:07:50;;;;;;;6.55;2.30;;;7.80;76.40;;;;;;4954599;28;20039;-73
2022/01/06 00:10:19;;;;;;;5.28;2.40;;;7.80;76.60;;;;;;4953628;28;20034;-74
2022/01/06 00:13:05;;;;;;;6.15;2.50;;;7.80;76.40;;;;;;4953266;28;20058;-73
2022/01/06 00:15:42;;;;;;;5.22;2.28;;;7.80;76.40;;;;;;4954635;28;20402;-74
2022/01/06 00:18:21;;;;;;;6.53;2.70;;;7.80;76.40;;;;;;4952309;28;20045;-74
2022/01/06 00:25:59;;;;;;;5.38;2.47;;;7.80;76.60;;;;;;4956459;28;20027;-74
2022/01/06 00:28:25;;;;;;;6.68;2.45;;;7.80;76.70;;;;;;4954450;28;20031;-74
2022/01/06 00:30:50;;;;;;;5.82;2.20;;;7.80;76.60;;;;;;4953228;28;20055;-74
2022/01/06 00:33:17;;;;;;;4.78;2.20;;;7.80;76.20;;;;;;4954106;28;20120;-73
2022/01/06 00:35:43;;;;;;;6.78;2.58;;;7.80;76.40;;;;;;4950582;28;20024;-74
2022/01/06 00:38:09;;;;;;;5.72;2.63;;;7.80;76.40;;;;;;4955897;28;20586;-74
2022/01/06 00:40:35;;;;;;;3.97;2.13;;;7.80;76.10;;;;;;4954175;28;20034;-74
2022/01/06 00:43:03;;;;;;;6.13;2.28;;;7.80;76.30;;;;;;4954286;28;20027;-74
2022/01/06 00:45:29;;;;;;;8.13;2.42;;;7.80;76.20;;;;;;4954329;28;20608;-74
2022/01/06 00:47:55;;;;;;;6.13;2.55;;;7.80;76.20;;;;;;4951475;28;20043;-73
2022/01/06 00:50:20;;;;;;;5.57;2.50;;;7.80;76.10;;;;;;4952994;28;20110;-74
2022/01/06 00:52:46;;;;;;;5.95;2.53;;;7.90;76.20;;;;;;4955368;28;20073;-74
2022/01/06 00:55:12;;;;;;;4.95;2.47;;;7.80;76.10;;;;;;4954118;28;20019;-74
2022/01/06 00:57:38;;;;;;;4.60;2.45;;;7.80;76.30;;;;;;4954019;28;20114;-74
2022/01/06 01:00:07;;;;;;;5.70;2.45;;;7.80;76.40;;;;;;4950107;28;20497;-74
2022/01/06 01:02:32;;;;;;;4.82;2.60;;;7.80;76.30;;;;;;4950141;28;20020;-73
2022/01/06 01:04:58;;;;;;;3.72;2.20;;;7.80;76.50;;;;;;4955875;28;20031;-74
2022/01/06 01:07:24;;;;;;;4.90;2.40;;;7.80;76.40;;;;;;4953029;28;20092;-74
2022/01/06 01:09:50;;;;;;;6.18;2.72;;;7.90;76.30;;;;;;4952544;28;20028;-74
2022/01/06 01:12:15;;;;;;;4.88;2.20;;;7.90;76.10;;;;;;4953753;28;20096;-74
2022/01/06 01:14:58;;;;;;;4.13;2.05;;;7.90;76.00;;;;;;4949764;28;20035;-73
2022/01/06 01:17:26;;;;;;;4.75;2.05;;;7.70;76.00;;;;;;4950203;28;20039;-73
2022/01/06 01:19:52;;;;;;;4.70;2.00;;;7.90;76.10;;;;;;4953749;28;20106;-73
2022/01/06 01:22:18;;;;;;;6.50;2.40;;;7.80;75.90;;;;;;4953776;28;20582;-73
2022/01/06 01:24:43;;;;;;;5.72;2.00;;;7.80;75.80;;;;;;4953720;28;20035;-74
2022/01/06 01:27:09;;;;;;;5.43;2.20;;;7.80;76.00;;;;;;4953134;28;20427;-74
2022/01/06 01:29:44;;;;;;;5.80;2.03;;;7.80;75.90;;;;;;4949943;28;20070;-74
2022/01/06 01:32:10;;;;;;;6.75;2.17;;;7.80;75.70;;;;;;4954854;28;20031;-74
2022/01/06 01:34:38;;;;;;;4.70;2.20;;;7.90;76.10;;;;;;4953711;28;20027;-73
2022/01/06 01:37:04;;;;;;;4.80;2.08;;;7.80;76.10;;;;;;4953647;28;20472;-74
2022/01/06 01:39:29;;;;;;;4.88;2.03;;;7.90;76.00;;;;;;4953357;28;20027;-73
2022/01/06 01:41:55;;;;;;;4.75;1.95;;;7.80;75.90;;;;;;4951255;28;20030;-73
2022/01/06 01:44:21;;;;;;;4.30;1.95;;;7.80;76.10;;;;;;4952285;28;20035;-73
2022/01/06 01:47:00;;;;;;;4.22;2.28;;;7.80;76.10;;;;;;4954495;28;20157;-73
2022/01/06 01:49:29;;;;;;;3.38;1.80;;;7.80;76.20;;;;;;4953247;28;20027;-74
2022/01/06 01:51:55;;;;;;;4.40;2.08;;;7.80;76.30;;;;;;4953275;28;20024;-74
2022/01/06 01:54:21;;;;;;;5.70;2.15;;;7.80;76.00;;;;;;4953396;28;20171;-74
2022/01/06 01:56:46;;;;;;;6.30;2.20;;;7.70;75.90;;;;;;4949895;28;20547;-73
2022/01/06 01:59:13;;;;;;;4.22;1.90;;;7.70;76.10;;;;;;4954046;28;20038;-73
2022/01/06 02:01:39;;;;;;;4.97;1.95;;;7.80;76.10;;;;;;4952137;28;20023;-74
2022/01/06 02:04:05;;;;;;;4.22;2.03;;;7.70;76.30;;;;;;4953289;28;20531;-73
2022/01/06 02:06:31;;;;;;;3.88;1.77;;;7.80;76.30;;;;;;4953085;28;20027;-73
2022/01/06 02:08:56;;;;;;;6.15;1.92;;;7.70;76.00;;;;;;4950970;28;20085;-73
2022/01/06 02:11:23;;;;;;;4.15;1.77;;;7.70;76.20;;;;;;4951417;28;20523;-73
2022/01/06 02:13:54;;;;;;;6.13;2.08;;;7.70;76.40;;;;;;4954640;28;20031;-73
2022/01/06 02:16:21;;;;;;;4.68;1.98;;;7.80;76.50;;;;;;4952701;28;20024;-73
2022/01/06 02:18:48;;;;;;;3.80;2.05;;;7.80;76.10;;;;;;4954040;28;20539;-73
2022/01/06 02:21:14;;;;;;;4.47;1.80;;;7.80;76.00;;;;;;4956350;28;20015;-73
2022/01/06 02:23:39;;;;;;;4.35;1.80;;;7.70;76.00;;;;;;4952419;28;20032;-73
2022/01/06 02:26:05;;;;;;;4.10;1.70;;;7.80;76.20;;;;;;4958165;28;20054;-73
2022/01/06 02:28:30;;;;;;;4.05;1.83;;;7.80;76.20;;;;;;4955727;28;20044;-73
2022/01/06 02:30:58;;;;;;;3.35;1.75;;;7.70;76.00;;;;;;4956250;28;20106;-73
2022/01/06 02:33:24;;;;;;;3.45;1.73;;;7.70;76.00;;;;;;4956430;28;20506;-73
2022/01/06 02:35:50;;;;;;;4.15;2.08;;;7.70;76.10;;;;;;4953059;28;20042;-73
2022/01/06 02:38:17;;;;;;;5.93;2.00;;;7.70;76.10;;;;;;4956097;28;20404;-73
2022/01/06 02:40:44;;;;;;;4.38;1.83;;;7.70;76.10;;;;;;4956941;28;20034;-73
2022/01/06 02:43:13;;;;;;;4.15;2.10;;;7.60;76.10;;;;;;4955712;28;20031;-73
2022/01/06 02:45:38;;;;;;;4.88;2.20;;;7.60;76.10;;;;;;4955986;28;20081;-72
2022/01/06 02:48:08;;;;;;;4.53;1.92;;;7.70;76.30;;;;;;4954856;28;20026;-73
2022/01/06 02:50:37;;;;;;;5.03;1.77;;;7.60;76.30;;;;;;4952295;28;20081;-73
2022/01/06 02:53:04;;;;;;;4.05;1.88;;;7.60;76.30;;;;;;4957922;28;20031;-73
2022/01/06 02:55:31;;;;;;;5.97;1.92;;;7.60;76.50;;;;;;4955810;28;20035;-73
2022/01/06 02:57:56;;;;;;;4.30;1.95;;;7.60;76.50;;;;;;4955356;28;20102;-73
2022/01/06 03:00:22;;;;;;;4.15;2.10;;;7.70;76.50;;;;;;4955924;28;20118;-73
2022/01/06 03:02:48;;;;;;;7.68;2.10;;;7.60;76.70;;;;;;4951301;28;20061;-73
2022/01/06 03:05:16;;;;;;;5.60;2.10;;;7.60;76.80;;;;;;4956082;28;20395;-73
2022/01/06 03:07:42;;;;;;;4.13;2.17;;;7.60;76.70;;;;;;4956258;28;20054;-73
2022/01/06 03:10:11;;;;;;;4.20;2.10;;;7.60;76.70;;;;;;4955629;28;20027;-73
2022/01/06 03:12:40;;;;;;;4.45;1.70;;;7.60;76.60;;;;;;4954946;28;20476;-73
2022/01/06 03:15:09;;;;;;;4.22;2.08;;;7.60;76.80;;;;;;4954680;28;20429;-73
2022/01/06 03:17:36;;;;;;;4.07;2.13;;;7.50;76.70;;;;;;4952089;28;20023;-73
2022/01/06 03:20:04;;;;;;;4.10;1.98;;;7.50;77.70;;;;;;4957424;28;20038;-73
2022/01/06 03:22:30;;;;;;;5.05;2.05;;;7.50;77.00;;;;;;4955449;28;20023;-73
2022/01/06 03:24:56;;;;;;;3.25;1.60;;;7.50;77.20;;;;;;4955441;28;20031;-73
2022/01/06 03:27:22;;;;;;;4.75;1.85;;;7.50;77.10;;;;;;4954979;28;20041;-73
2022/01/06 03:29:50;;;;;;;3.65;2.05;;;7.60;76.90;;;;;;4951799;28;20035;-74
2022/01/06 03:32:16;;;;;;;3.80;1.70;;;7.50;77.20;;;;;;4955180;28;20046;-73
2022/01/06 03:34:42;;;;;;;8.93;2.58;;;7.60;77.10;;;;;;4955843;28;20031;-73
2022/01/06 03:37:07;;;;;;;5.97;2.80;;;7.40;76.90;;;;;;4955305;28;20388;-72
2022/01/06 03:39:33;;;;;;;5.38;2.60;;;7.50;77.30;;;;;;4955177;28;20519;-72
2022/01/06 03:41:59;;;;;;;4.30;2.47;;;7.50;77.50;;;;;;4951911;28;20450;-73
2022/01/06 03:44:25;;;;;;;4.88;2.28;;;7.40;77.30;;;;;;4952990;28;20027;-73
2022/01/06 03:46:53;;;;;;;3.75;2.30;;;7.50;77.40;;;;;;4953683;28;20138;-72
2022/01/06 03:49:19;;;;;;;3.42;2.00;;;7.40;77.30;;;;;;4954984;28;20015;-73
2022/01/06 03:51:45;;;;;;;5.53;2.30;;;7.40;77.30;;;;;;4955063;28;20032;-72
2022/01/06 03:54:10;;;;;;;5.15;2.25;;;7.40;77.80;;;;;;4954671;28;20514;-73
2022/01/06 03:56:36;;;;;;;4.45;1.98;;;7.40;77.80;;;;;;4950716;28;20032;-72
2022/01/06 03:59:02;;;;;;;4.93;2.10;;;7.50;77.80;;;;;;4956775;28;20484;-72
2022/01/06 04:01:28;;;;;;;5.57;2.15;;;7.50;77.60;;;;;;4954936;28;20031;-73
2022/01/06 04:03:53;;;;;;;4.55;2.33;;;7.50;77.80;;;;;;4954849;28;20085;-72
2022/01/06 04:06:19;;;;;;;5.80;2.22;;;7.50;77.50;;;;;;4954886;28;20037;-73
2022/01/06 04:08:45;;;;;;;5.90;2.10;;;7.50;77.60;;;;;;4951270;28;20108;-73
2022/01/06 04:11:11;;;;;;;3.53;1.85;;;7.50;77.80;;;;;;4955448;28;21257;-73
2022/01/06 04:13:36;;;;;;;4.65;2.20;;;7.50;78.70;;;;;;4955175;28;20084;-72
2022/01/06 04:16:07;;;;;;;4.68;2.03;;;7.50;77.80;;;;;;4954588;28;20026;-72
2022/01/06 04:18:32;;;;;;;4.88;2.25;;;7.60;77.80;;;;;;4954551;28;20035;-72
2022/01/06 04:20:58;;;;;;;4.88;2.20;;;7.60;77.80;;;;;;4951615;28;20027;-73
2022/01/06 04:23:24;;;;;;;4.25;2.15;;;7.60;77.90;;;;;;4952316;28;20495;-73
2022/01/06 04:25:50;;;;;;;4.57;2.20;;;7.60;77.80;;;;;;4954137;28;20527;-73
2022/01/06 04:28:16;;;;;;;4.38;2.17;;;7.60;77.70;;;;;;4954267;28;20042;-72
2022/01/06 04:30:41;;;;;;;6.60;2.28;;;7.60;77.70;;;;;;4954475;28;20085;-73
2022/01/06 04:33:07;;;;;;;4.28;2.10;;;7.60;77.60;;;;;;4953847;28;20520;-73
2022/01/06 04:35:33;;;;;;;6.30;2.13;;;7.60;77.60;;;;;;4950810;28;20106;-73
2022/01/06 04:37:58;;;;;;;5.57;2.10;;;7.60;78.00;;;;;;4956308;28;20035;-73
2022/01/06 04:40:24;;;;;;;7.07;2.22;;;7.60;78.10;;;;;;4953985;28;20016;-73
2022/01/06 04:42:50;;;;;;;4.47;2.38;;;7.60;77.90;;;;;;4953183;28;20563;-73
2022/01/06 04:45:15;;;;;;;5.72;2.20;;;7.50;77.80;;;;;;4954377;28;20042;-72
2022/01/06 04:47:41;;;;;;;5.20;2.17;;;7.60;78.10;;;;;;4950139;28;20039;-72
2022/01/06 04:50:07;;;;;;;5.43;2.17;;;7.60;78.10;;;;;;4955987;28;20046;-72
2022/01/06 04:52:33;;;;;;;6.28;2.30;;;7.60;78.00;;;;;;4953999;28;20059;-72
2022/01/06 04:54:58;;;;;;;4.53;1.90;;;7.60;77.90;;;;;;4953910;28;20058;-72
2022/01/06 04:57:24;;;;;;;4.40;2.10;;;7.60;79.20;;;;;;4953974;28;20031;-72
2022/01/06 04:59:50;;;;;;;3.85;2.22;;;7.60;78.20;;;;;;4948368;28;20028;-72
2022/01/06 05:02:16;;;;;;;5.28;2.08;;;7.60;78.20;;;;;;4954128;28;20032;-72
2022/01/06 05:04:41;;;;;;;5.38;1.75;;;7.60;78.10;;;;;;4954678;28;20027;-72
2022/01/06 05:07:07;;;;;;;4.25;2.15;;;7.60;78.30;;;;;;4953953;28;20469;-72
2022/01/06 05:09:33;;;;;;;4.47;2.00;;;7.60;77.90;;;;;;4953605;28;20074;-73
2022/01/06 05:11:58;;;;;;;3.97;2.03;;;7.60;77.90;;;;;;4951972;28;20059;-72
2022/01/06 05:14:24;;;;;;;6.05;1.98;;;7.50;78.00;;;;;;4951498;28;20030;-72
2022/01/06 05:16:50;;;;;;;4.75;2.08;;;7.50;78.00;;;;;;4955708;28;20053;-72
2022/01/06 05:19:16;;;;;;;4.88;1.85;;;7.60;78.20;;;;;;4953828;28;20503;-72
2022/01/06 05:21:42;;;;;;;3.25;1.95;;;7.50;78.00;;;;;;4954143;28;20357;-73
2022/01/06 05:24:16;;;;;;;4.60;2.30;;;7.60;77.90;;;;;;4952849;28;20087;-72
2022/01/06 05:26:42;;;;;;;;;;;7.60;77.90;;;;;;4935263;28;20039;-72
2022/01/06 05:29:09;;;;;;;4.53;1.83;;;7.60;78.00;;;;;;4955487;28;19910;-72
2022/01/06 05:31:35;;;;;;;4.03;1.95;;;7.60;78.10;;;;;;4952479;28;20035;-72
2022/01/06 05:34:02;;;;;;;5.60;2.08;;;7.50;77.80;;;;;;4953621;28;20023;-73
2022/01/06 05:36:28;;;;;;;4.97;2.03;;;7.60;77.80;;;;;;4953526;28;20035;-72
2022/01/06 05:38:54;;;;;;;6.57;2.28;;;7.50;78.30;;;;;;4950784;28;20395;-75
2022/01/06 05:41:19;;;;;;;4.63;2.03;;;7.50;78.10;;;;;;4952436;28;20027;-73
2022/01/06 05:43:45;;;;;;;5.03;2.10;;;7.40;77.50;;;;;;4954913;28;20377;-73
2022/01/06 05:46:11;;;;;;;6.32;2.38;;;7.40;78.20;;;;;;4953236;28;20046;-73
2022/01/06 05:48:36;;;;;;;4.68;2.40;;;7.40;78.30;;;;;;4951971;28;20035;-74
2022/01/06 05:51:02;;;;;;;3.55;1.98;;;7.40;78.30;;;;;;4952060;28;20027;-73
2022/01/06 05:53:29;;;;;;;5.50;2.00;;;7.40;78.20;;;;;;4950659;28;20086;-73
2022/01/06 05:55:55;;;;;;;4.68;2.42;;;7.30;79.00;;;;;;4956276;28;20034;-74
2022/01/06 05:58:21;;;;;;;4.47;2.15;;;7.30;78.40;;;;;;4952375;28;20027;-73
2022/01/06 06:00:49;;;;;;;5.35;2.28;;;7.30;78.60;;;;;;4957586;28;20545;-74
2022/01/06 06:03:14;;;;;;;4.25;2.17;;;7.20;78.30;;;;;;4966297;28;20065;-73
2022/01/06 06:05:41;;;;;;;4.88;2.20;;;7.20;78.40;;;;;;4951968;28;20067;-75
2022/01/06 06:08:08;;;;;;;2.38;1.92;;;7.20;78.50;;;;;;4964812;28;20487;-74
2022/01/06 06:10:33;;;;;;;5.82;2.50;;;7.10;78.60;;;;;;4955023;28;20031;-74
2022/01/06 06:12:59;;;;;;;5.00;2.35;;;7.10;78.50;;;;;;4954617;28;20051;-74
2022/01/06 06:15:25;;;;;;;5.70;2.38;;;7.10;78.70;;;;;;4954855;28;20118;-73
2022/01/06 06:17:50;;;;;;;5.90;2.30;;;7.00;78.70;;;;;;4953299;28;20054;-74
2022/01/06 06:20:16;;;;;;;6.57;2.00;;;7.00;78.90;;;;;;4955803;28;20027;-74
2022/01/06 06:22:42;;;;;;;3.70;2.25;;;7.00;79.00;;;;;;4956337;28;20035;-74
2022/01/06 06:25:08;;;;;;;6.22;2.30;;;7.00;79.10;;;;;;4956297;28;20019;-74
2022/01/06 06:27:33;;;;;;;5.70;2.30;;;7.00;79.10;;;;;;4955887;28;20096;-74
2022/01/06 06:29:59;;;;;;;2.97;2.00;;;7.00;79.40;;;;;;4951861;28;20023;-74
2022/01/06 06:32:27;;;;;;;4.05;2.20;;;7.00;79.30;;;;;;4967425;28;20472;-74
2022/01/06 06:34:53;;;;;;;5.32;2.22;;;7.00;79.30;;;;;;4987448;28;20023;-74
2022/01/06 06:37:18;;;;;;;5.45;2.20;;;7.00;79.50;;;;;;4955567;28;20070;-74
2022/01/06 06:39:44;;;;;;;4.10;2.28;;;6.90;79.40;;;;;;4955943;28;20051;-74
2022/01/06 06:42:10;;;;;;;5.50;2.67;;;6.90;79.50;;;;;;4949656;28;20508;-74
2022/01/06 06:44:36;;;;;;;3.78;2.25;;;6.90;79.70;;;;;;4965196;28;20102;-74
2022/01/06 06:47:02;;;;;;;3.85;2.22;;;6.90;79.60;;;;;;4957697;28;20043;-75
2022/01/06 06:49:29;;;;;;;4.95;2.30;;;6.90;79.50;;;;;;4955200;28;20385;-74
2022/01/06 06:51:55;;;;;;;4.32;2.22;;;6.90;79.80;;;;;;4953830;28;20129;-74
2022/01/06 06:54:21;;;;;;;5.88;2.47;;;6.90;79.90;;;;;;4955995;28;20391;-74
2022/01/06 06:56:47;;;;;;;4.45;2.10;;;6.90;79.70;;;;;;4952260;28;20024;-76
2022/01/06 06:59:12;;;;;;;6.10;2.50;;;7.00;80.30;;;;;;4953910;28;20111;-74
2022/01/06 07:01:38;;;;;;;6.05;2.40;;;7.00;79.90;;;;;;4962223;28;20492;-74
2022/01/06 07:04:04;;;;;;;4.10;2.25;;;6.90;79.90;;;;;;4955629;28;20027;-73
2022/01/06 07:06:29;;;;;;;4.57;2.35;;;6.90;79.80;;;;;;4954936;28;20042;-73
2022/01/06 07:08:55;;;;;;;4.97;2.70;;;6.90;79.80;;;;;;4946499;28;20119;-74
2022/01/06 07:11:22;;;;;;;5.22;2.83;;;6.90;79.80;;;;;;4953508;28;20118;-74
2022/01/06 07:13:48;;;;;;;6.30;2.65;;;6.80;79.80;;;;;;4953421;28;20137;-74
2022/01/06 07:16:14;;;;;;;6.18;2.92;;;6.90;79.80;;;;;;4952760;28;20539;-74
2022/01/06 07:18:39;;;;;;;4.65;2.63;;;6.80;80.10;;;;;;4949622;28;20027;-74
2022/01/06 07:21:05;;;;;;;4.93;2.78;;;6.80;80.10;;;;;;4954662;28;20031;-74
2022/01/06 07:23:30;;;;;;;4.30;2.58;;;6.90;80.20;;;;;;4951939;28;20031;-74
2022/01/06 07:25:56;;;;;;;5.75;2.75;;;6.90;80.20;;;;;;4956236;28;20088;-74
2022/01/06 07:28:22;;;;;;;5.43;2.83;;;6.90;80.20;;;;;;4954927;28;20118;-74
2022/01/06 07:30:47;;;;;;;7.50;3.42;;;6.90;80.30;;;;;;4954040;28;20403;-74
2022/01/06 07:33:13;;;;;;;5.32;2.95;;;6.90;79.50;;;;;;4954591;28;20031;-76
2022/01/06 07:35:38;;;;;;;7.53;3.30;;;6.80;79.60;;;;;;4951127;28;20496;-76
2022/01/06 07:38:04;;;;;;;6.10;3.05;;;6.70;79.80;;;;;;4957010;28;20066;-76
2022/01/06 07:40:30;;;;;;;4.20;2.50;;;6.70;80.20;;;;;;4965461;28;20027;-76
2022/01/06 07:42:56;;;;;;;5.95;3.03;;;6.70;80.40;;;;;;4959064;28;20031;-76
2022/01/06 07:45:21;;;;;;;8.48;3.33;;;6.80;80.60;;;;;;4952622;28;20462;-75
2022/01/06 07:48:04;;;;;;;6.10;3.10;;;6.80;80.30;;;;;;4965774;28;20039;-76
2022/01/06 07:50:32;;;;;;;6.28;3.40;;;6.70;80.10;;;;;;4950605;28;20035;-74
2022/01/06 07:52:58;;;;;;;5.75;2.92;;;6.70;79.80;;;;;;4956738;28;20028;-76
2022/01/06 07:55:25;;;;;;;5.97;3.10;;;6.70;80.10;;;;;;4954938;28;20023;-76
2022/01/06 07:57:52;;;;;;;7.88;3.15;;;6.70;80.40;;;;;;4954917;28;20554;-76
2022/01/06 08:00:19;;;;;;;5.82;3.10;;;6.70;80.30;;;;;;4955097;28;20027;-76
2022/01/06 08:02:45;;;;;;;4.85;2.85;;;6.70;80.20;;;;;;4951089;28;20070;-76
2022/01/06 08:05:13;;;;;;;4.43;2.92;;;6.70;80.30;;;;;;4955980;28;20019;-75
2022/01/06 08:07:39;;;;;;;7.00;2.90;;;6.70;80.50;;;;;;4954062;28;20042;-76
2022/01/06 08:10:06;;;;;;;5.07;2.90;;;6.70;80.40;;;;;;4954665;28;20031;-76
2022/01/06 08:12:32;;;;;;;4.90;2.67;;;6.70;80.60;;;;;;4954545;28;20521;-76
2022/01/06 08:14:57;;;;;;;5.50;2.85;;;6.70;80.60;;;;;;4952820;28;20099;-76
2022/01/06 08:17:23;;;;;;;3.92;2.85;;;6.70;80.50;;;;;;4952179;28;20043;-76
2022/01/06 08:19:49;;;;;;;6.70;2.90;;;6.70;80.60;;;;;;4956418;28;20055;-77
2022/01/06 08:22:14;;;;;;;7.07;2.80;;;6.70;80.60;;;;;;4954768;28;20472;-76
2022/01/06 08:24:40;;;;;;;6.63;3.05;;;6.80;80.60;;;;;;4954631;28;20330;-76
2022/01/06 08:27:08;;;;;;;6.90;3.40;;;6.80;80.60;;;;;;4953619;28;20034;-76
2022/01/06 08:29:40;;;;;;;6.50;3.33;;;6.80;80.40;;;;;;4950886;28;20154;-76
2022/01/06 08:32:07;;;;;;;6.32;3.10;;;6.80;80.60;;;;;;4962842;28;20185;-76
2022/01/06 08:34:34;;;;;;;4.93;2.95;;;6.80;80.40;;;;;;4965586;28;20037;-75
2022/01/06 08:36:59;;;;;;;6.78;3.38;;;6.90;80.70;;;;;;4959158;28;20505;-76
2022/01/06 08:39:25;;;;;;;7.50;3.10;;;6.90;80.70;;;;;;4954431;28;20077;-76
2022/01/06 08:41:53;;;;;;;6.45;2.95;;;7.00;80.70;;;;;;4951764;28;20165;-75
2022/01/06 08:44:19;;;;;;;5.18;3.17;;;7.00;80.60;;;;;;4953485;28;20531;-76
2022/01/06 08:46:46;;;;;;;7.32;3.20;;;7.00;80.20;;;;;;4955172;28;20029;-76
2022/01/06 08:49:12;;;;;;;6.38;3.20;;;7.00;80.60;;;;;;4954281;28;20062;-76
2022/01/06 08:51:42;;;;;;;7.28;3.08;;;7.00;80.20;;;;;;4954217;28;20023;-76
2022/01/06 08:54:08;;;;;;;6.25;3.45;;;7.00;80.30;;;;;;4953739;28;20030;-77
2022/01/06 08:56:35;;;;;;;11.00;4.28;;;7.10;80.20;;;;;;4949235;28;20122;-76
2022/01/06 08:59:02;;;;;;;8.70;3.55;;;7.10;79.80;;;;;;4956181;28;20023;-76
2022/01/06 09:01:28;;;;;;;7.25;3.47;;;7.10;80.10;;;;;;4953688;28;20032;-76
2022/01/06 09:03:54;;;;;;;8.57;3.78;;;7.20;80.10;;;;;;4954101;28;20492;-76
2022/01/06 09:06:20;;;;;;;7.43;3.70;;;7.30;80.20;;;;;;4954164;28;20035;-76
2022/01/06 09:08:46;;;;;;;7.78;3.35;;;7.60;80.50;;;;;;4950444;28;20555;-76
2022/01/06 09:11:12;;;;;;;7.55;4.10;;;7.90;80.40;;;;;;4954740;28;20074;-76
2022/01/06 09:13:37;;;;;;;10.07;4.75;;;8.00;79.40;;;;;;4953081;28;20039;-76
2022/01/06 09:16:08;;;;;;;9.30;4.45;;;8.10;78.40;;;;;;4953639;28;20080;-76
2022/01/06 09:18:33;;;;;;;9.30;4.80;;;8.10;77.90;;;;;;4953923;28;20035;-76
2022/01/06 09:20:59;;;;;;;7.63;4.03;;;8.50;78.50;;;;;;4952283;28;20031;-76
2022/01/06 09:23:25;;;;;;;6.75;3.70;;;8.90;77.80;;;;;;4951610;28;20024;-76
2022/01/06 09:25:51;;;;;;;7.30;3.38;;;8.90;75.80;;;;;;4955728;28;20387;-75
2022/01/06 09:28:16;;;;;;;7.82;3.78;;;8.90;75.20;;;;;;4952936;28;20157;-76
2022/01/06 09:30:42;;;;;;;7.10;3.42;;;9.00;75.10;;;;;;4953516;28;20425;-76
2022/01/06 09:33:07;;;;;;;7.50;2.92;;;9.20;75.90;;;;;;4953143;28;20035;-76
2022/01/06 09:35:33;;;;;;;5.35;2.97;;;9.50;74.80;;;;;;4950187;28;20023;-76
2022/01/06 09:37:59;;;;;;;7.20;3.47;;;9.60;74.50;;;;;;4955422;28;20027;-76
2022/01/06 09:40:25;;;;;;;4.95;3.03;;;9.40;71.80;;;;;;4953658;28;20026;-76
2022/01/06 09:42:50;;;;;;;5.63;3.25;;;9.50;74.60;;;;;;4953520;28;20522;-76
2022/01/06 09:45:16;;;;;;;6.47;3.92;;;9.80;73.90;;;;;;4953080;28;20023;-76
2022/01/06 09:47:42;;;;;;;6.53;3.58;;;10.00;72.00;;;;;;4949620;28;20181;-76
2022/01/06 09:50:10;;;;;;;8.20;4.00;;;10.10;71.90;;;;;;4955258;28;20046;-76
2022/01/06 09:52:36;;;;;;;6.30;3.30;;;10.40;70.90;;;;;;4953698;28;20526;-75
2022/01/06 09:55:04;;;;;;;5.45;3.17;;;10.70;70.20;;;;;;4953504;28;20027;-76
2022/01/06 09:57:30;;;;;;;6.78;3.45;;;11.00;70.50;;;;;;4953289;28;20034;-76
2022/01/06 09:59:56;;;;;;;6.90;3.25;;;11.20;68.00;;;;;;4950935;28;20023;-75
2022/01/06 10:02:31;;;;;;;6.55;3.50;;;11.50;69.60;;;;;;4951834;28;20027;-76
2022/01/06 10:05:00;;;;;;;8.27;3.92;;;11.80;68.00;;;;;;4953776;28;20028;-76
2022/01/06 10:07:26;;;;;;;5.28;3.20;;;11.90;66.70;;;;;;4952967;28;20424;-76
2022/01/06 10:09:52;;;;;;;6.60;2.83;;;12.10;65.40;;;;;;4953201;28;20020;-76
2022/01/06 10:12:17;;;;;;;7.43;3.53;;;12.20;64.10;;;;;;4953002;28;20478;-76
2022/01/06 10:14:46;;;;;;;4.80;2.85;;;12.30;63.80;;;;;;4949003;28;20091;-75
2022/01/06 10:17:27;;;;;;;5.93;3.47;;;12.50;63.70;;;;;;4953885;28;20120;-74
2022/01/06 10:19:54;;;;;;;6.32;3.63;;;12.70;63.50;;;;;;4952111;28;20019;-74
2022/01/06 10:22:21;;;;;;;5.50;3.00;;;12.80;63.60;;;;;;4953229;28;20027;-74
2022/01/06 10:24:49;;;;;;;6.35;2.90;;;12.90;62.00;;;;;;4952857;28;20115;-74
2022/01/06 10:27:17;;;;;;;7.10;2.75;;;13.10;61.00;;;;;;4952601;28;20045;-74
2022/01/06 10:29:50;;;;;;;6.75;2.70;;;13.20;61.00;;;;;;4949137;28;20024;-76
2022/01/06 10:32:18;;;;;;;6.55;3.03;;;13.30;60.50;;;;;;4953190;28;20027;-76
2022/01/06 10:35:05;;;;;;;4.88;2.92;;;13.50;61.00;;;;;;4954039;28;20059;-73
2022/01/06 10:37:35;;;;;;;5.72;3.17;;;13.60;60.80;;;;;;4952766;28;20070;-74
2022/01/06 10:40:16;;;;;;;8.07;3.13;;;13.80;59.40;;;;;;4954074;28;20028;-73
2022/01/06 10:42:47;;;;;;;7.25;3.08;;;13.90;59.10;;;;;;4955804;28;20031;-74
2022/01/06 10:45:18;;;;;;;6.40;2.95;;;14.10;58.30;;;;;;4956217;28;20026;-73
2022/01/06 10:47:48;;;;;;;5.50;3.10;;;14.20;57.50;;;;;;4937612;28;20389;-74
2022/01/06 10:50:23;;;;;;;6.63;2.55;;;14.30;57.20;;;;;;4956318;28;20076;-74
2022/01/06 10:53:01;;;;;;;4.18;2.40;;;14.50;58.90;;;;;;4957635;28;20156;-74
2022/01/06 10:55:35;;;;;;;7.13;2.90;;;14.60;55.80;;;;;;4955973;28;20050;-75
2022/01/06 10:58:07;;;;;;;4.53;2.42;;;14.70;56.60;;;;;;4954339;28;20063;-75
2022/01/06 11:00:40;;;;;;;6.20;2.70;;;14.80;54.90;;;;;;4955828;28;20085;-74
2022/01/06 11:03:16;;;;;;;6.35;2.53;;;15.10;55.90;;;;;;4955046;28;20042;-75
2022/01/06 11:05:45;;;;;;;6.00;2.47;;;15.10;56.50;;;;;;4950557;28;20024;-75
2022/01/06 11:08:12;;;;;;;7.70;2.63;;;15.30;55.80;;;;;;4956785;28;20031;-75
2022/01/06 11:10:46;;;;;;;6.05;2.50;;;15.60;56.50;;;;;;4954456;28;20027;-75
2022/01/06 11:13:12;;;;;;;5.03;2.40;;;15.80;56.70;;;;;;4954336;28;20136;-74
2022/01/06 11:15:38;;;;;;;6.85;2.88;;;16.10;55.90;;;;;;4954276;28;20066;-74
2022/01/06 11:18:05;;;;;;;7.50;2.85;;;16.00;51.10;;;;;;4954503;28;20526;-75
2022/01/06 11:20:31;;;;;;;5.80;2.78;;;15.90;52.00;;;;;;4952478;28;20174;-74
2022/01/06 11:22:59;;;;;;;6.10;2.63;;;16.10;51.80;;;;;;4957598;28;20084;-75
2022/01/06 11:25:39;;;;;;;4.97;2.88;;;16.20;52.10;;;;;;4955250;28;20054;-75
2022/01/06 11:28:10;;;;;;;4.60;2.80;;;16.30;52.90;;;;;;4955296;28;20046;-75
2022/01/06 11:30:49;;;;;;;4.05;2.00;;;16.30;52.00;;;;;;4954119;28;20023;-75
2022/01/06 11:33:15;;;;;;;5.03;1.88;;;16.30;54.20;;;;;;4955470;28;20027;-75
2022/01/06 11:35:54;;;;;;;4.75;1.80;;;16.40;52.10;;;;;;4950062;28;20075;-75
2022/01/06 11:38:26;;;;;;;3.45;1.67;;;16.40;54.20;;;;;;4954585;28;20385;-74
2022/01/06 11:41:10;;;;;;;4.28;1.92;;;16.50;53.70;;;;;;4960016;28;20077;-74
2022/01/06 11:43:37;;;;;;;3.50;1.92;;;15.90;51.00;;;;;;4954096;28;20101;-75
2022/01/06 11:46:03;;;;;;;3.65;2.15;;;15.70;52.30;;;;;;4955138;28;20170;-75
2022/01/06 11:48:29;;;;;;;3.50;1.40;;;15.60;51.30;;;;;;4955134;28;20050;-75
2022/01/06 11:50:55;;;;;;;3.00;1.27;;;15.10;50.60;;;;;;4952569;28;20020;-74
2022/01/06 11:53:33;;;;;;;1.13;0.70;;;14.60;51.00;;;;;;4953729;28;20044;-75
2022/01/06 11:56:11;;;;;;;2.30;0.82;;;14.30;54.00;;;;;;4954649;28;20042;-75
2022/01/06 11:58:37;;;;;;;4.65;1.13;;;13.90;51.90;;;;;;4955179;28;20184;-74
2022/01/06 12:01:07;;;;;;;4.38;1.23;;;13.50;53.30;;;;;;4955134;28;20089;-75
2022/01/06 12:03:37;;;;;;;4.20;1.08;;;13.20;53.90;;;;;;4954821;28;20037;-75
2022/01/06 12:06:03;;;;;;;3.42;1.30;;;12.90;54.50;;;;;;4953533;28;20027;-74
2022/01/06 12:08:43;;;;;;;3.15;1.30;;;12.50;54.80;;;;;;4951346;28;20081;-73
2022/01/06 12:11:30;;;;;;;3.97;1.30;;;12.20;55.50;;;;;;4962729;28;20081;-74
2022/01/06 12:13:59;;;;;;;3.53;1.10;;;11.90;56.30;;;;;;4955278;28;20028;-74
2022/01/06 12:16:26;;;;;;;2.90;1.10;;;11.60;56.50;;;;;;4954725;28;20110;-74
2022/01/06 12:18:52;;;;;;;3.55;1.20;;;11.40;57.70;;;;;;4954515;28;20031;-74
2022/01/06 12:21:18;;;;;;;2.45;1.00;;;11.20;57.20;;;;;;4949587;28;20030;-74
2022/01/06 12:23:46;;;;;;;5.32;1.30;;;11.20;58.90;;;;;;4949718;28;20031;-75
2022/01/06 12:26:13;;;;;;;3.03;1.20;;;11.30;59.70;;;;;;4954696;28;20020;-74
2022/01/06 12:28:50;;;;;;;3.88;1.40;;;11.30;57.40;;;;;;4953074;28;20049;-75
2022/01/06 12:31:24;;;;;;;3.08;1.33;;;11.20;57.70;;;;;;4952522;28;20031;-75
2022/01/06 12:33:50;;;;;;;2.80;1.20;;;11.10;58.60;;;;;;4954355;28;20518;-75
2022/01/06 12:36:21;;;;;;;3.80;1.50;;;11.10;58.40;;;;;;4953563;28;20022;-76
2022/01/06 12:38:47;;;;;;;3.95;1.10;;;11.10;58.30;;;;;;4950046;28;20106;-75
2022/01/06 12:41:16;;;;;;;4.57;1.40;;;11.30;59.40;;;;;;4946509;28;20034;-76
2022/01/06 12:43:43;;;;;;;3.67;1.40;;;11.40;59.00;;;;;;4952386;28;20062;-75
2022/01/06 12:46:14;;;;;;;5.50;1.55;;;11.20;58.00;;;;;;4948865;28;20019;-75
2022/01/06 12:48:41;;;;;;;5.20;1.70;;;11.20;58.20;;;;;;4953754;28;20077;-74
2022/01/06 12:51:10;;;;;;;4.35;1.70;;;11.30;58.80;;;;;;4952106;28;20490;-73
2022/01/06 12:53:44;;;;;;;2.38;1.27;;;11.40;58.10;;;;;;4949500;28;20522;-75
2022/01/06 12:56:36;;;;;;;2.80;1.23;;;11.20;56.70;;;;;;4963115;28;20092;-76
2022/01/06 12:59:07;;;;;;;4.35;1.20;;;11.30;59.00;;;;;;4955051;28;20022;-75
2022/01/06 13:01:33;;;;;;;4.35;1.30;;;11.50;57.00;;;;;;4961915;28;20033;-75